createdAt,value
2024-01-15T00:00:44.299Z,0.00
2024-01-15T00:03:12.239Z,0.00
2024-01-15T00:05:39.887Z,-0.10
2024-01-15T00:08:07.070Z,0.00
2024-01-15T00:10:34.031Z,0.00
2024-01-15T00:13:01.242Z,0.00
2024-01-15T00:15:29.820Z,0.00
2024-01-15T00:17:57.691Z,0.00
2024-01-15T00:20:25.558Z,0.00
2024-01-15T00:22:53.823Z,0.10
2024-01-15T00:25:21.128Z,0.00
2024-01-15T00:27:48.195Z,0.00
2024-01-15T00:30:15.665Z,0.00
2024-01-15T00:32:42.691Z,0.00
2024-01-15T00:35:10.169Z,0.00
2024-01-15T00:37:37.083Z,0.00
2024-01-15T00:40:05.873Z,0.00
2024-01-15T00:42:32.925Z,0.10
2024-01-15T00:44:59.999Z,0.10
2024-01-15T00:47:27.697Z,0.10
2024-01-15T00:49:54.736Z,0.10
2024-01-15T00:52:21.660Z,0.10
2024-01-15T00:54:48.660Z,0.10
2024-01-15T00:57:15.653Z,0.10
2024-01-15T00:59:42.988Z,0.10
2024-01-15T01:02:10.195Z,0.10
2024-01-15T01:04:37.497Z,0.10
2024-01-15T01:07:04.695Z,0.10
2024-01-15T01:09:31.799Z,0.10
2024-01-15T01:11:58.754Z,0.10
2024-01-15T01:14:25.716Z,0.10
2024-01-15T01:16:52.916Z,0.10
2024-01-15T01:19:20.680Z,0.10
2024-01-15T01:21:47.816Z,0.10
2024-01-15T01:24:15.274Z,0.10
2024-01-15T01:26:42.513Z,0.10
2024-01-15T01:29:09.529Z,0.10
2024-01-15T01:31:36.894Z,0.10
2024-01-15T01:34:04.623Z,0.10
2024-01-15T01:36:33.756Z,0.10
2024-01-15T01:39:00.660Z,0.10
2024-01-15T01:41:27.875Z,0.10
2024-01-15T01:43:55.219Z,0.00
2024-01-15T01:46:22.324Z,0.00
2024-01-15T01:48:49.790Z,0.00
2024-01-15T01:51:17.553Z,0.00
2024-01-15T01:53:46.727Z,0.00
2024-01-15T01:56:16.216Z,0.00
2024-01-15T01:58:43.775Z,0.10
2024-01-15T02:01:11.766Z,0.10
2024-01-15T02:03:41.311Z,0.10
2024-01-15T02:06:09.108Z,0.10
2024-01-15T02:08:37.528Z,0.20
2024-01-15T02:11:05.187Z,0.10
2024-01-15T02:13:32.212Z,0.10
2024-01-15T02:15:59.193Z,0.10
2024-01-15T02:18:26.357Z,0.10
2024-01-15T02:20:53.263Z,0.10
2024-01-15T02:23:20.253Z,0.10
2024-01-15T02:25:48.745Z,0.10
2024-01-15T02:28:18.764Z,0.10
2024-01-15T02:30:46.614Z,0.10
2024-01-15T02:33:14.494Z,0.10
2024-01-15T02:35:41.936Z,0.20
2024-01-15T02:38:09.888Z,0.10
2024-01-15T02:40:38.093Z,0.20
2024-01-15T02:43:05.501Z,0.20
2024-01-15T02:45:32.576Z,0.10
2024-01-15T02:47:59.831Z,0.10
2024-01-15T02:50:26.791Z,0.10
2024-01-15T02:52:54.555Z,0.10
2024-01-15T02:55:21.440Z,0.10
2024-01-15T02:57:49.019Z,0.20
2024-01-15T03:00:16.778Z,0.20
2024-01-15T03:02:48.486Z,0.20
2024-01-15T03:05:16.161Z,0.20
2024-01-15T03:07:44.273Z,0.20
2024-01-15T03:10:11.308Z,0.20
2024-01-15T03:12:38.324Z,0.20
2024-01-15T03:15:06.130Z,0.20
2024-01-15T03:17:33.447Z,0.20
2024-01-15T03:20:00.856Z,0.20
2024-01-15T03:22:28.125Z,0.20
2024-01-15T03:24:55.131Z,0.20
2024-01-15T03:27:22.313Z,0.20
2024-01-15T03:29:49.290Z,0.20
2024-01-15T03:32:17.486Z,0.20
2024-01-15T03:34:44.561Z,0.20
2024-01-15T03:37:11.505Z,0.20
2024-01-15T03:39:38.812Z,0.20
2024-01-15T03:42:06.374Z,0.20
2024-01-15T03:44:33.336Z,0.20
2024-01-15T03:47:00.578Z,0.20
2024-01-15T03:49:27.622Z,0.20
2024-01-15T03:51:55.600Z,0.20
2024-01-15T03:54:22.899Z,0.20
2024-01-15T03:56:49.893Z,0.20
2024-01-15T03:59:20.036Z,0.20
2024-01-15T04:01:51.940Z,0.20
2024-01-15T04:04:20.302Z,0.20
2024-01-15T04:06:47.854Z,0.20
2024-01-15T04:09:15.285Z,0.20
2024-01-15T04:11:42.801Z,0.20
2024-01-15T04:14:10.036Z,0.20
2024-01-15T04:16:38.965Z,0.20
2024-01-15T04:19:06.102Z,0.20
2024-01-15T04:21:33.750Z,0.20
2024-01-15T04:24:01.108Z,0.20
2024-01-15T04:26:28.249Z,0.20
2024-01-15T04:28:55.165Z,0.20
2024-01-15T04:31:28.425Z,0.20
2024-01-15T04:33:56.027Z,0.20
2024-01-15T04:36:23.358Z,0.20
2024-01-15T04:38:50.440Z,0.20
2024-01-15T04:41:18.584Z,0.30
2024-01-15T04:43:46.152Z,0.20
2024-01-15T04:46:13.490Z,0.20
2024-01-15T04:48:40.461Z,0.20
2024-01-15T04:51:10.449Z,0.20
2024-01-15T04:53:37.520Z,0.30
2024-01-15T04:56:05.058Z,0.30
2024-01-15T04:58:32.357Z,0.30
2024-01-15T05:00:59.484Z,0.30
2024-01-15T05:03:26.570Z,0.30
2024-01-15T05:05:53.954Z,0.30
2024-01-15T05:08:21.767Z,0.30
2024-01-15T05:10:49.776Z,0.30
2024-01-15T05:13:16.841Z,0.20
2024-01-15T05:15:44.436Z,0.30
2024-01-15T05:18:11.555Z,0.30
2024-01-15T05:20:38.598Z,0.30
2024-01-15T05:23:05.553Z,0.30
2024-01-15T05:25:32.859Z,0.30
2024-01-15T05:28:00.001Z,0.30
2024-01-15T05:30:27.284Z,0.20
2024-01-15T05:32:54.531Z,0.30
2024-01-15T05:35:21.774Z,0.30
2024-01-15T05:37:49.386Z,0.30
2024-01-15T05:40:16.438Z,0.30
2024-01-15T05:42:43.433Z,0.30
2024-01-15T05:45:11.119Z,0.30
2024-01-15T05:47:38.241Z,0.30
2024-01-15T05:50:06.204Z,0.40
2024-01-15T05:52:33.241Z,0.30
2024-01-15T05:55:00.355Z,0.30
2024-01-15T05:57:27.736Z,0.30
2024-01-15T05:59:55.763Z,0.30
2024-01-15T06:02:22.772Z,0.30
2024-01-15T06:04:50.081Z,0.30
2024-01-15T06:07:18.302Z,0.30
2024-01-15T06:09:45.663Z,0.30
2024-01-15T06:12:12.941Z,0.30
2024-01-15T06:14:39.851Z,0.30
2024-01-15T06:17:06.834Z,0.30
2024-01-15T06:19:34.337Z,0.30
2024-01-15T06:22:01.422Z,0.40
2024-01-15T06:24:28.623Z,0.40
2024-01-15T06:26:55.607Z,0.40
2024-01-15T06:29:22.549Z,0.40
2024-01-15T06:31:50.241Z,0.30
2024-01-15T06:34:17.463Z,0.30
2024-01-15T06:36:44.831Z,0.30
2024-01-15T06:39:12.477Z,0.30
2024-01-15T06:41:44.967Z,0.30
2024-01-15T06:44:13.115Z,0.30
2024-01-15T06:46:49.743Z,0.30
2024-01-15T06:49:17.073Z,0.30
2024-01-15T06:51:46.332Z,0.40
2024-01-15T06:54:14.968Z,0.40
2024-01-15T06:56:41.949Z,0.40
2024-01-15T06:59:08.971Z,0.40
2024-01-15T07:01:36.711Z,0.40
2024-01-15T07:04:04.692Z,0.40
2024-01-15T07:06:32.583Z,0.40
2024-01-15T07:08:59.834Z,0.50
2024-01-15T07:11:27.017Z,0.40
2024-01-15T07:13:54.679Z,0.40
2024-01-15T07:16:34.660Z,0.40
2024-01-15T07:19:04.950Z,0.40
2024-01-15T07:21:32.221Z,0.40
2024-01-15T07:23:59.670Z,0.40
2024-01-15T07:26:27.122Z,0.50
2024-01-15T07:28:54.701Z,0.40
2024-01-15T07:31:24.554Z,0.50
2024-01-15T07:33:51.838Z,0.40
2024-01-15T07:36:18.935Z,0.40
2024-01-15T07:38:46.185Z,0.40
2024-01-15T07:41:15.620Z,0.50
2024-01-15T07:43:43.576Z,0.50
2024-01-15T07:46:10.575Z,0.50
2024-01-15T07:48:37.714Z,0.50
2024-01-15T07:51:05.672Z,0.50
2024-01-15T07:53:32.680Z,0.50
2024-01-15T07:55:59.775Z,0.50
2024-01-15T07:58:26.895Z,0.50
2024-01-15T08:00:54.325Z,0.60
2024-01-15T08:03:21.429Z,0.60
2024-01-15T08:05:48.835Z,0.60
2024-01-15T08:08:15.848Z,0.60
2024-01-15T08:10:43.167Z,0.60
2024-01-15T08:13:10.551Z,0.70
2024-01-15T08:15:38.083Z,0.70
2024-01-15T08:18:05.449Z,0.80
2024-01-15T08:20:32.799Z,0.70
2024-01-15T08:23:00.132Z,0.80
2024-01-15T08:25:27.242Z,0.80
2024-01-15T08:27:54.299Z,0.80
2024-01-15T08:30:22.379Z,0.80
2024-01-15T08:32:49.354Z,0.80
2024-01-15T08:35:17.167Z,0.80
2024-01-15T08:37:44.560Z,0.80
2024-01-15T08:40:12.442Z,0.80
2024-01-15T08:42:39.754Z,0.80
2024-01-15T08:45:07.098Z,0.80
2024-01-15T08:47:34.304Z,0.80
2024-01-15T08:50:02.405Z,0.80
2024-01-15T08:52:29.666Z,0.80
2024-01-15T08:54:59.063Z,0.80
2024-01-15T08:57:26.149Z,0.80
2024-01-15T08:59:55.279Z,0.80
2024-01-15T09:02:23.068Z,0.90
2024-01-15T09:04:50.338Z,0.80
2024-01-15T09:07:17.516Z,0.90
2024-01-15T09:09:44.810Z,0.90
2024-01-15T09:12:12.157Z,0.90
2024-01-15T09:14:41.207Z,1.00
2024-01-15T09:17:08.141Z,1.00
2024-01-15T09:19:35.522Z,1.00
2024-01-15T09:22:03.068Z,1.00
2024-01-15T09:24:30.387Z,1.00
2024-01-15T09:26:57.608Z,1.00
2024-01-15T09:29:29.559Z,1.00
2024-01-15T09:31:56.900Z,1.00
2024-01-15T09:34:24.319Z,1.00
2024-01-15T09:36:51.905Z,1.00
2024-01-15T09:39:19.595Z,1.00
2024-01-15T09:41:47.402Z,1.00
2024-01-15T09:44:15.106Z,1.00
2024-01-15T09:46:44.165Z,1.00
2024-01-15T09:49:12.168Z,1.00
2024-01-15T09:51:41.449Z,1.20
2024-01-15T09:54:09.895Z,1.00
2024-01-15T09:56:37.325Z,1.00
2024-01-15T09:59:08.001Z,1.00
2024-01-15T10:01:38.127Z,1.00
2024-01-15T10:04:05.350Z,1.00
2024-01-15T10:06:33.798Z,1.00
2024-01-15T10:09:01.849Z,1.00
2024-01-15T10:11:29.575Z,1.00
2024-01-15T10:13:58.603Z,1.10
2024-01-15T10:16:26.584Z,1.10
2024-01-15T10:18:53.734Z,1.10
2024-01-15T10:21:20.891Z,1.10
2024-01-15T10:23:48.553Z,1.10
2024-01-15T10:26:18.537Z,1.10
2024-01-15T10:28:46.630Z,1.10
2024-01-15T10:31:13.745Z,1.10
2024-01-15T10:33:41.138Z,1.10
2024-01-15T10:36:12.546Z,1.00
2024-01-15T10:38:39.540Z,1.10
2024-01-15T10:41:06.967Z,1.10
2024-01-15T10:43:35.675Z,1.10
2024-01-15T10:46:03.712Z,1.20
2024-01-15T10:48:32.351Z,1.20
2024-01-15T10:50:59.780Z,1.20
2024-01-15T10:53:27.618Z,1.20
2024-01-15T10:55:54.938Z,1.20
2024-01-15T10:58:24.516Z,1.20
2024-01-15T11:00:52.439Z,1.20
2024-01-15T11:03:20.101Z,1.20
2024-01-15T11:05:48.176Z,1.20
2024-01-15T11:08:20.084Z,1.20
2024-01-15T11:10:53.673Z,1.10
2024-01-15T11:13:41.399Z,1.20
2024-01-15T11:16:11.400Z,1.20
2024-01-15T11:18:42.660Z,1.20
2024-01-15T11:21:18.198Z,1.30
2024-01-15T11:23:58.655Z,1.30
2024-01-15T11:26:47.408Z,1.30
2024-01-15T11:29:31.082Z,1.30
2024-01-15T11:32:11.802Z,1.20
2024-01-15T11:35:03.481Z,1.20
2024-01-15T11:37:55.664Z,1.30
2024-01-15T11:40:39.242Z,1.30
2024-01-15T11:43:08.439Z,1.30
2024-01-15T11:45:36.360Z,1.40
2024-01-15T11:48:16.048Z,1.40
2024-01-15T11:50:51.378Z,1.40
2024-01-15T11:53:42.098Z,1.40
2024-01-15T11:56:20.577Z,1.30
2024-01-15T11:58:48.332Z,1.30
2024-01-15T12:01:15.550Z,1.30
2024-01-15T12:03:43.309Z,1.40
2024-01-15T12:06:11.780Z,1.40
2024-01-15T12:08:38.852Z,1.40
2024-01-15T12:11:15.281Z,1.40
2024-01-15T12:13:42.323Z,1.40
2024-01-15T12:16:09.695Z,1.40
2024-01-15T12:18:37.247Z,1.40
2024-01-15T12:21:05.791Z,1.50
2024-01-15T12:23:33.078Z,1.40
2024-01-15T12:26:00.589Z,1.30
2024-01-15T12:28:29.949Z,1.30
2024-01-15T12:30:57.491Z,1.30
2024-01-15T12:33:24.730Z,1.20
2024-01-15T12:35:55.059Z,1.20
2024-01-15T12:38:22.182Z,1.20
2024-01-15T12:40:49.991Z,1.20
2024-01-15T12:43:17.011Z,1.20
2024-01-15T12:45:44.551Z,1.20
2024-01-15T12:48:12.312Z,1.20
2024-01-15T12:50:39.322Z,1.10
2024-01-15T12:53:06.448Z,1.10
2024-01-15T12:55:35.855Z,1.10
2024-01-15T12:58:03.222Z,1.10
2024-01-15T13:00:30.445Z,1.10
2024-01-15T13:02:59.056Z,1.20
2024-01-15T13:05:28.536Z,1.20
2024-01-15T13:07:56.070Z,1.20
2024-01-15T13:10:25.553Z,1.20
2024-01-15T13:12:53.520Z,1.20
2024-01-15T13:15:20.599Z,1.20
2024-01-15T13:17:47.835Z,1.10
2024-01-15T13:20:15.085Z,1.10
2024-01-15T13:22:45.707Z,1.00
2024-01-15T13:25:13.513Z,1.00
2024-01-15T13:27:41.897Z,1.00
2024-01-15T13:30:11.776Z,1.00
2024-01-15T13:32:39.177Z,1.00
2024-01-15T13:35:08.930Z,1.00
2024-01-15T13:37:36.324Z,1.00
2024-01-15T13:40:05.141Z,1.00
2024-01-15T13:42:32.188Z,1.00
2024-01-15T13:44:59.508Z,1.00
2024-01-15T13:47:26.653Z,1.00
2024-01-15T13:49:53.903Z,1.00
2024-01-15T13:52:20.805Z,0.90
2024-01-15T13:54:50.462Z,0.90
2024-01-15T13:57:21.340Z,0.90
2024-01-15T13:59:50.680Z,0.90
2024-01-15T14:02:20.898Z,0.90
2024-01-15T14:04:50.255Z,0.90
2024-01-15T14:07:18.400Z,0.90
2024-01-15T14:09:45.528Z,0.90
2024-01-15T14:12:13.145Z,0.90
2024-01-15T14:14:41.618Z,0.90
2024-01-15T14:17:08.903Z,1.10
2024-01-15T14:19:36.775Z,1.00
2024-01-15T14:22:04.883Z,1.00
2024-01-15T14:24:32.185Z,0.90
2024-01-15T14:26:59.903Z,0.90
2024-01-15T14:29:28.094Z,0.90
2024-01-15T14:31:55.286Z,0.80
2024-01-15T14:34:25.267Z,0.80
2024-01-15T14:36:56.265Z,0.80
2024-01-15T14:39:24.919Z,0.70
2024-01-15T14:41:52.856Z,0.70
2024-01-15T14:44:20.432Z,0.70
2024-01-15T14:46:48.000Z,0.70
2024-01-15T14:49:16.039Z,0.70
2024-01-15T14:51:43.578Z,0.70
2024-01-15T14:54:12.206Z,0.70
2024-01-15T14:56:39.067Z,0.70
2024-01-15T14:59:06.310Z,0.70
2024-01-15T15:01:33.633Z,0.70
2024-01-15T15:04:00.797Z,0.70
2024-01-15T15:06:29.480Z,0.70
2024-01-15T15:08:58.909Z,0.70
2024-01-15T15:11:27.220Z,0.60
2024-01-15T15:13:54.233Z,0.60
2024-01-15T15:16:21.470Z,0.60
2024-01-15T15:18:48.722Z,0.60
2024-01-15T15:21:16.088Z,0.70
2024-01-15T15:23:43.446Z,0.70
2024-01-15T15:26:10.930Z,0.70
2024-01-15T15:28:38.407Z,0.70
2024-01-15T15:31:11.033Z,0.60
2024-01-15T15:33:38.463Z,0.60
2024-01-15T15:36:06.699Z,0.60
2024-01-15T15:38:34.817Z,0.50
2024-01-15T15:41:02.364Z,0.50
2024-01-15T15:43:30.603Z,0.50
2024-01-15T15:46:01.399Z,0.50
2024-01-15T15:48:28.732Z,0.50
2024-01-15T15:50:57.271Z,0.40
2024-01-15T15:53:26.113Z,0.40
2024-01-15T15:55:53.643Z,0.50
2024-01-15T15:58:21.424Z,0.40
2024-01-15T16:00:48.778Z,0.40
2024-01-15T16:03:16.454Z,0.40
2024-01-15T16:05:51.900Z,0.40
2024-01-15T16:08:21.441Z,0.30
2024-01-15T16:10:53.631Z,0.30
2024-01-15T16:13:21.345Z,0.30
2024-01-15T16:15:49.177Z,0.30
2024-01-15T16:23:20.085Z,0.40
2024-01-15T16:23:34.764Z,0.30
2024-01-15T16:24:12.266Z,0.30
2024-01-15T16:26:42.692Z,0.30
2024-01-15T16:29:10.663Z,0.30
2024-01-15T16:31:39.708Z,0.20
2024-01-15T16:34:09.729Z,0.20
2024-01-15T16:36:38.846Z,0.20
2024-01-15T16:39:06.020Z,0.30
2024-01-15T16:41:33.077Z,0.20
2024-01-15T16:44:00.432Z,0.30
2024-01-15T16:46:27.431Z,0.20
2024-01-15T16:48:54.556Z,0.20
2024-01-15T16:51:22.164Z,0.20
2024-01-15T16:53:49.216Z,0.20
2024-01-15T16:56:16.719Z,0.20
2024-01-15T16:58:44.083Z,0.20
2024-01-15T17:01:11.697Z,0.30
2024-01-15T17:03:40.050Z,0.20
2024-01-15T17:06:07.539Z,0.20
2024-01-15T17:08:35.136Z,0.20
2024-01-15T17:11:03.065Z,0.20
2024-01-15T17:13:30.344Z,0.20
2024-01-15T17:15:57.414Z,0.20
2024-01-15T17:18:27.361Z,0.30
2024-01-15T17:20:55.230Z,0.20
2024-01-15T17:23:22.541Z,0.20
2024-01-15T17:25:50.042Z,0.20
2024-01-15T17:28:18.425Z,0.20
2024-01-15T17:30:48.251Z,0.20
2024-01-15T17:33:15.441Z,0.20
2024-01-15T17:35:55.362Z,0.20
2024-01-15T17:38:22.368Z,0.20
2024-01-15T17:40:49.719Z,0.20
2024-01-15T17:43:17.461Z,0.20
2024-01-15T17:45:44.696Z,0.20
2024-01-15T17:48:12.195Z,0.10
2024-01-15T17:50:40.501Z,0.10
2024-01-15T17:53:07.829Z,0.20
2024-01-15T17:55:35.160Z,0.20
2024-01-15T17:58:02.419Z,0.10
2024-01-15T18:00:29.848Z,0.10
2024-01-15T18:02:57.107Z,0.10
2024-01-15T18:05:24.262Z,0.20
2024-01-15T18:07:53.588Z,0.20
2024-01-15T18:10:20.496Z,0.20
2024-01-15T18:12:47.499Z,0.20
2024-01-15T18:15:14.935Z,0.20
2024-01-15T18:17:42.601Z,0.10
2024-01-15T18:20:11.149Z,0.20
2024-01-15T18:22:38.166Z,0.10
2024-01-15T18:25:05.816Z,0.20
2024-01-15T18:27:32.747Z,0.20
2024-01-15T18:30:00.145Z,0.10
2024-01-15T18:32:27.775Z,0.10
2024-01-15T18:34:55.101Z,0.10
2024-01-15T18:37:22.416Z,0.10
2024-01-15T18:39:49.932Z,0.10
2024-01-15T18:42:18.222Z,0.10
2024-01-15T18:44:45.241Z,0.10
2024-01-15T18:47:12.276Z,0.10
2024-01-15T18:49:39.246Z,0.10
2024-01-15T18:52:06.935Z,0.10
2024-01-15T18:54:34.144Z,0.10
2024-01-15T18:57:01.246Z,0.10
2024-01-15T18:59:32.969Z,0.10
2024-01-15T19:02:01.469Z,0.20
2024-01-15T19:04:28.523Z,0.20
2024-01-15T19:06:55.568Z,0.20
2024-01-15T19:09:22.425Z,0.20
2024-01-15T19:11:49.833Z,0.20
2024-01-15T19:14:16.774Z,0.20
2024-01-15T19:16:43.982Z,0.10
2024-01-15T19:19:11.070Z,0.20
2024-01-15T19:21:38.130Z,0.10
2024-01-15T19:24:05.782Z,0.10
2024-01-15T19:26:33.444Z,0.20
2024-01-15T19:29:00.844Z,0.10
2024-01-15T19:31:30.824Z,0.20
2024-01-15T19:33:58.308Z,0.20
2024-01-15T19:36:30.292Z,0.20
2024-01-15T19:38:57.458Z,0.20
2024-01-15T19:41:25.435Z,0.10
2024-01-15T19:43:56.117Z,0.10
2024-01-15T19:46:25.133Z,0.10
2024-01-15T19:48:52.428Z,0.10
2024-01-15T19:51:19.435Z,0.10
2024-01-15T19:53:47.782Z,0.10
2024-01-15T19:56:18.291Z,0.20
2024-01-15T19:58:46.151Z,0.20
2024-01-15T20:01:13.402Z,0.20
2024-01-15T20:03:42.777Z,0.10
2024-01-15T20:06:13.066Z,0.10
2024-01-15T20:08:44.906Z,0.10
2024-01-15T20:11:12.548Z,0.10
2024-01-15T20:13:41.283Z,0.10
2024-01-15T20:16:15.144Z,0.10
2024-01-15T20:18:43.591Z,0.10
2024-01-15T20:21:11.416Z,0.10
2024-01-15T20:23:50.266Z,0.10
2024-01-15T20:26:23.081Z,0.10
2024-01-15T20:28:50.290Z,0.10
2024-01-15T20:31:18.014Z,0.10
2024-01-15T20:33:45.093Z,0.10
2024-01-15T20:36:14.283Z,0.10
2024-01-15T20:38:41.645Z,0.10
2024-01-15T20:41:09.029Z,0.10
2024-01-15T20:43:36.233Z,0.10
2024-01-15T20:46:03.872Z,0.00
2024-01-15T20:48:31.590Z,0.00
2024-01-15T20:50:59.568Z,0.00
2024-01-15T20:53:29.074Z,0.00
2024-01-15T20:55:56.220Z,0.00
2024-01-15T20:58:26.720Z,0.00
2024-01-15T21:00:53.853Z,0.00
2024-01-15T21:03:20.986Z,0.00
2024-01-15T21:05:48.054Z,0.10
2024-01-15T21:08:16.815Z,0.10
2024-01-15T21:10:43.785Z,0.10
2024-01-15T21:13:10.713Z,0.10
2024-01-15T21:15:39.869Z,0.10
2024-01-15T21:18:07.663Z,0.10
2024-01-15T21:20:34.877Z,0.20
2024-01-15T21:23:03.520Z,0.10
2024-01-15T21:25:31.948Z,0.20
2024-01-15T21:27:58.965Z,0.20
2024-01-15T21:30:26.618Z,0.20
2024-01-15T21:32:53.768Z,0.20
2024-01-15T21:35:21.005Z,0.20
2024-01-15T21:37:47.960Z,0.20
2024-01-15T21:40:15.673Z,0.20
2024-01-15T21:42:42.588Z,0.10
2024-01-15T21:45:10.487Z,0.20
2024-01-15T21:47:38.779Z,0.20
2024-01-15T21:50:10.045Z,0.10
2024-01-15T21:52:37.331Z,0.20
2024-01-15T21:55:06.992Z,0.20
2024-01-15T21:57:34.397Z,0.10
2024-01-15T22:00:07.284Z,0.10
2024-01-15T22:02:37.579Z,0.10
2024-01-15T22:05:04.845Z,0.10
2024-01-15T22:07:31.895Z,0.10
2024-01-15T22:09:58.992Z,0.10
2024-01-15T22:12:26.240Z,0.10
2024-01-15T22:14:53.130Z,0.10
2024-01-15T22:17:21.082Z,0.10
2024-01-15T22:19:48.435Z,0.10
2024-01-15T22:22:15.352Z,0.10
2024-01-15T22:24:42.349Z,0.00
2024-01-15T22:27:09.232Z,0.00
2024-01-15T22:29:36.353Z,0.10
2024-01-15T22:32:04.108Z,0.10
2024-01-15T22:34:31.128Z,0.10
2024-01-15T22:36:58.251Z,0.10
2024-01-15T22:39:25.137Z,0.10
2024-01-15T22:41:52.064Z,0.10
2024-01-15T22:44:18.971Z,0.10
2024-01-15T22:46:46.371Z,0.10
2024-01-15T22:49:13.881Z,0.10
2024-01-15T22:51:40.795Z,0.10
2024-01-15T22:54:08.330Z,0.10
2024-01-15T22:56:35.256Z,0.10
2024-01-15T22:59:02.489Z,0.10
2024-01-15T23:01:29.901Z,0.10
2024-01-15T23:03:57.189Z,0.00
2024-01-15T23:06:24.091Z,0.10
2024-01-15T23:08:51.465Z,0.00
2024-01-15T23:11:18.807Z,0.00
2024-01-15T23:13:45.862Z,0.00
2024-01-15T23:16:14.654Z,0.00
2024-01-15T23:18:42.995Z,0.00
2024-01-15T23:21:10.880Z,0.00
2024-01-15T23:23:38.253Z,0.00
2024-01-15T23:26:07.790Z,0.00
2024-01-15T23:28:35.830Z,0.00
2024-01-15T23:31:02.998Z,0.00
2024-01-15T23:33:30.223Z,0.00
2024-01-15T23:35:57.738Z,-0.10
2024-01-15T23:38:24.842Z,0.00
2024-01-15T23:40:52.018Z,0.00
2024-01-15T23:43:19.305Z,0.00
2024-01-15T23:45:51.195Z,0.00
2024-01-15T23:48:23.113Z,0.00
2024-01-15T23:50:50.300Z,0.00
2024-01-15T23:53:18.039Z,0.00
2024-01-15T23:55:44.991Z,0.00
2024-01-15T23:58:11.930Z,0.00
